Terminal Aerodrome Forecast
Issued by NWS Jackson, KY

Home | Current Version | Previous Version | Text Only | Print | Product List | Glossary On
Versions: 1 2 3 4 5 6 7 8 9 10 11 12 13 14 15 16 17 18 19
000
FTUS43 KJKL 210300 AAA
TAFLOZ
TAF AMD
KLOZ 210355Z 2104/2124 VRB03KT P6SM VCSH SCT035 BKN050
     FM210500 00000KT 4SM BR SCT250
     FM210700 00000KT 1/2SM FG SCT007
     FM211230 00000KT 4SM BR SCT015
     FM211430 VRB03KT P6SM SCT040=

USA.gov is the U.S. government's official web portal to all federal, state and local government web resources and services.